Time;durP1;ratioP1;P1;durP2;ratioP2;P2;SDS_P1;SDS_P2;PMS_P1;PMS_P2;Temp;Humidity;BMP_temperature;BMP_pressure;BME280_temperature;BME280_humidity;BME280_pressure;Samples;Min_cycle;Max_cycle;Signal;HPM_P1;HPM_P2
2023/10/22 00:00:51;;;;;;;11.03;5.80;;;;;;;;;;5031116;28;20071;-56
2023/10/22 00:03:16;;;;;;;13.90;12.25;;;;;;;;;;5031743;28;20359;-58
2023/10/22 00:05:41;;;;;;;11.13;7.67;;;;;;;;;;5032218;28;20619;-56
2023/10/22 00:08:06;;;;;;;12.77;11.57;;;;;;;;;;5031162;28;20025;-56
2023/10/22 00:10:31;;;;;;;14.90;10.57;;;;;;;;;;5031650;28;20053;-57
2023/10/22 00:12:57;;;;;;;9.55;5.70;;;;;;;;;;5031697;28;20024;-57
2023/10/22 00:15:23;;;;;;;10.57;5.50;;;;;;;;;;5031982;28;20018;-56
2023/10/22 00:17:49;;;;;;;10.77;5.72;;;;;;;;;;5033997;28;20060;-58
2023/10/22 00:20:14;;;;;;;9.33;7.00;;;;;;;;;;5037959;28;20501;-57
2023/10/22 00:22:39;;;;;;;10.40;6.80;;;;;;;;;;5039769;28;20030;-59
2023/10/22 00:25:05;;;;;;;11.30;5.37;;;;;;;;;;5044834;28;20029;-58
2023/10/22 00:27:32;;;;;;;10.30;6.07;;;;;;;;;;5037664;28;20021;-58
2023/10/22 00:29:57;;;;;;;9.27;5.28;;;;;;;;;;5031041;28;20052;-57
2023/10/22 00:32:22;;;;;;;9.47;6.00;;;;;;;;;;5031534;28;20057;-58
2023/10/22 00:34:47;;;;;;;10.53;6.10;;;;;;;;;;5031173;28;20662;-58
2023/10/22 00:37:13;;;;;;;11.30;7.87;;;;;;;;;;5014273;28;20073;-57
2023/10/22 00:39:38;;;;;;;10.50;7.27;;;;;;;;;;5030243;28;20092;-58
2023/10/22 00:42:03;;;;;;;11.67;6.40;;;;;;;;;;5031912;28;20030;-59
2023/10/22 00:44:28;;;;;;;11.30;7.13;;;;;;;;;;5031114;28;20096;-58
2023/10/22 00:46:54;;;;;;;13.43;11.23;;;;;;;;;;5028617;28;20034;-58
2023/10/22 00:49:19;;;;;;;10.13;5.80;;;;;;;;;;5030444;28;20028;-58
2023/10/22 00:51:46;;;;;;;10.77;5.90;;;;;;;;;;5029959;28;20108;-57
2023/10/22 00:54:12;;;;;;;10.27;6.13;;;;;;;;;;5030793;28;20017;-58
2023/10/22 00:56:38;;;;;;;10.77;6.15;;;;;;;;;;5029219;28;20029;-59
2023/10/22 00:59:03;;;;;;;13.05;8.70;;;;;;;;;;5030735;28;20695;-58
2023/10/22 01:01:29;;;;;;;10.43;7.17;;;;;;;;;;5030268;28;20564;-58
2023/10/22 01:03:54;;;;;;;10.52;6.85;;;;;;;;;;5030662;28;20529;-59
2023/10/22 01:06:19;;;;;;;11.13;5.97;;;;;;;;;;5036683;28;20021;-58
2023/10/22 01:08:45;;;;;;;10.63;6.50;;;;;;;;;;5021927;28;20439;-59
2023/10/22 01:11:10;;;;;;;12.80;7.77;;;;;;;;;;5030362;28;20026;-57
2023/10/22 01:13:36;;;;;;;10.63;6.57;;;;;;;;;;5031062;28;20485;-58
2023/10/22 01:16:01;;;;;;;12.75;8.70;;;;;;;;;;5025190;28;20145;-59
2023/10/22 01:18:26;;;;;;;11.95;7.45;;;;;;;;;;5024103;28;20033;-58
2023/10/22 01:20:52;;;;;;;16.60;15.00;;;;;;;;;;5024230;28;20565;-57
2023/10/22 01:23:18;;;;;;;9.55;6.38;;;;;;;;;;5030137;28;20069;-59
2023/10/22 01:25:44;;;;;;;11.53;6.90;;;;;;;;;;5030125;28;20492;-58
2023/10/22 01:28:09;;;;;;;11.85;6.95;;;;;;;;;;5030801;28;20053;-57
2023/10/22 01:30:34;;;;;;;15.13;13.67;;;;;;;;;;5029656;28;20040;-59
2023/10/22 01:33:01;;;;;;;10.80;6.77;;;;;;;;;;5030644;28;20440;-59
2023/10/22 01:35:26;;;;;;;12.32;8.50;;;;;;;;;;5028903;28;20500;-58
2023/10/22 01:37:51;;;;;;;12.25;10.55;;;;;;;;;;5029726;28;20033;-59
2023/10/22 01:40:17;;;;;;;9.07;5.47;;;;;;;;;;5022757;28;20021;-58
2023/10/22 01:42:42;;;;;;;11.23;9.03;;;;;;;;;;5030728;28;20030;-57
2023/10/22 01:45:07;;;;;;;9.70;6.13;;;;;;;;;;5030364;28;20022;-58
2023/10/22 01:47:32;;;;;;;6.97;4.57;;;;;;;;;;5030565;28;20104;-58
2023/10/22 01:49:57;;;;;;;8.00;5.03;;;;;;;;;;5029917;28;20024;-58
2023/10/22 01:52:23;;;;;;;8.60;5.32;;;;;;;;;;5030450;28;20030;-58
2023/10/22 01:54:49;;;;;;;8.57;4.85;;;;;;;;;;5026144;28;20493;-59
2023/10/22 01:57:15;;;;;;;7.30;3.95;;;;;;;;;;5030648;28;20022;-58
2023/10/22 01:59:41;;;;;;;9.27;4.67;;;;;;;;;;5029639;28;20018;-57
2023/10/22 02:02:06;;;;;;;8.02;5.20;;;;;;;;;;5023216;28;20028;-57
2023/10/22 02:04:31;;;;;;;8.02;5.90;;;;;;;;;;5033592;28;20033;-58
2023/10/22 02:06:57;;;;;;;9.47;4.50;;;;;;;;;;5033783;28;20022;-60
2023/10/22 02:09:23;;;;;;;7.13;3.70;;;;;;;;;;5035133;28;20071;-57
2023/10/22 02:11:48;;;;;;;10.32;9.27;;;;;;;;;;5033368;28;20460;-59
2023/10/22 02:14:13;;;;;;;7.87;4.30;;;;;;;;;;5032587;28;20109;-58
2023/10/22 02:16:38;;;;;;;8.85;4.68;;;;;;;;;;5033381;28;20434;-58
2023/10/22 02:19:04;;;;;;;8.27;4.50;;;;;;;;;;5028451;28;20733;-59
2023/10/22 02:21:29;;;;;;;7.38;3.85;;;;;;;;;;5033421;28;20028;-58
2023/10/22 02:23:55;;;;;;;6.83;3.70;;;;;;;;;;5035400;28;20369;-57
2023/10/22 02:26:20;;;;;;;6.47;3.22;;;;;;;;;;5028609;28;20593;-57
2023/10/22 02:28:46;;;;;;;6.77;3.33;;;;;;;;;;5033354;28;20037;-58
2023/10/22 02:31:11;;;;;;;6.35;2.78;;;;;;;;;;5025612;28;20030;-60
2023/10/22 02:33:37;;;;;;;7.83;4.27;;;;;;;;;;5022824;28;20392;-59
2023/10/22 02:36:04;;;;;;;4.80;2.53;;;;;;;;;;5033397;28;20031;-59
2023/10/22 02:38:29;;;;;;;6.25;2.83;;;;;;;;;;5033656;28;20022;-58
2023/10/22 02:40:54;;;;;;;7.87;5.77;;;;;;;;;;5028058;28;20033;-59
2023/10/22 02:43:19;;;;;;;6.37;2.93;;;;;;;;;;5029893;28;20561;-59
2023/10/22 02:45:51;;;;;;;5.35;2.60;;;;;;;;;;5033119;28;20029;-59
2023/10/22 02:48:16;;;;;;;5.38;2.80;;;;;;;;;;5030065;28;20418;-59
2023/10/22 02:50:42;;;;;;;23.83;22.30;;;;;;;;;;5024378;28;20036;-59
2023/10/22 02:53:07;;;;;;;5.73;2.50;;;;;;;;;;5030085;28;20037;-59
2023/10/22 02:55:32;;;;;;;7.03;2.77;;;;;;;;;;5025492;28;20025;-59
2023/10/22 02:57:57;;;;;;;7.43;3.77;;;;;;;;;;5036057;28;20025;-59
2023/10/22 03:00:22;;;;;;;6.13;3.33;;;;;;;;;;5034754;28;20453;-62
2023/10/22 03:02:47;;;;;;;7.13;3.78;;;;;;;;;;5035927;28;20709;-60
2023/10/22 03:05:13;;;;;;;7.13;3.80;;;;;;;;;;5035017;28;20041;-60
2023/10/22 03:07:38;;;;;;;8.18;7.38;;;;;;;;;;5035534;28;20029;-59
2023/10/22 03:10:04;;;;;;;6.70;3.50;;;;;;;;;;5034802;28;20020;-58
2023/10/22 03:12:29;;;;;;;9.57;8.20;;;;;;;;;;5021949;28;20088;-60
2023/10/22 03:14:54;;;;;;;6.10;3.15;;;;;;;;;;5036619;28;20540;-60
2023/10/22 03:17:19;;;;;;;6.77;3.60;;;;;;;;;;5033734;28;20030;-58
2023/10/22 03:19:45;;;;;;;6.27;3.90;;;;;;;;;;5029955;28;20044;-60
2023/10/22 03:22:10;;;;;;;6.85;3.88;;;;;;;;;;5033089;28;20107;-57
2023/10/22 03:24:35;;;;;;;6.90;3.20;;;;;;;;;;5036006;28;20033;-60
2023/10/22 03:27:03;;;;;;;6.95;6.18;;;;;;;;;;5033811;28;20017;-59
2023/10/22 03:29:29;;;;;;;7.40;4.75;;;;;;;;;;5031060;28;20444;-58
2023/10/22 03:31:54;;;;;;;6.87;4.60;;;;;;;;;;5032797;28;20477;-60
2023/10/22 03:34:19;;;;;;;9.93;4.23;;;;;;;;;;5032699;28;20101;-60
2023/10/22 03:36:44;;;;;;;6.47;3.40;;;;;;;;;;5033383;28;20017;-59
2023/10/22 03:39:10;;;;;;;9.32;8.48;;;;;;;;;;5032727;28;20049;-60
2023/10/22 03:41:35;;;;;;;6.30;3.47;;;;;;;;;;5031470;28;20086;-59
2023/10/22 03:44:00;;;;;;;7.23;6.13;;;;;;;;;;5031901;28;20021;-59
2023/10/22 03:46:26;;;;;;;9.10;7.73;;;;;;;;;;5032714;28;20072;-59
2023/10/22 03:48:51;;;;;;;6.63;3.83;;;;;;;;;;5032284;28;20032;-59
2023/10/22 03:51:16;;;;;;;7.63;3.60;;;;;;;;;;5031279;28;20409;-58
2023/10/22 03:53:41;;;;;;;6.70;3.30;;;;;;;;;;5032044;28;20022;-60
2023/10/22 03:56:07;;;;;;;7.53;3.47;;;;;;;;;;5031422;28;20021;-60
2023/10/22 03:58:32;;;;;;;6.20;3.50;;;;;;;;;;5030078;28;20037;-61
2023/10/22 04:00:57;;;;;;;6.97;3.70;;;;;;;;;;5026008;28;20018;-60
2023/10/22 04:03:23;;;;;;;6.60;3.37;;;;;;;;;;5032002;28;20052;-59
2023/10/22 04:05:57;;;;;;;7.05;3.80;;;;;;;;;;5031869;28;20099;-59
2023/10/22 04:08:23;;;;;;;7.93;3.70;;;;;;;;;;5032140;28;20052;-60
2023/10/22 04:10:48;;;;;;;6.68;4.70;;;;;;;;;;5031055;28;20052;-58
2023/10/22 04:13:14;;;;;;;6.10;3.30;;;;;;;;;;5031577;28;20029;-60
2023/10/22 04:15:39;;;;;;;14.65;13.55;;;;;;;;;;5030399;28;20017;-60
2023/10/22 04:18:04;;;;;;;6.30;4.10;;;;;;;;;;5031796;28;20021;-58
2023/10/22 04:20:33;;;;;;;11.32;10.20;;;;;;;;;;5030743;28;20025;-60
2023/10/22 04:22:58;;;;;;;8.30;4.35;;;;;;;;;;5031689;28;20432;-60
2023/10/22 04:25:23;;;;;;;8.40;4.28;;;;;;;;;;5024129;28;20025;-59
2023/10/22 04:27:49;;;;;;;7.40;4.20;;;;;;;;;;5034028;28;20051;-60
2023/10/22 04:30:14;;;;;;;6.27;3.63;;;;;;;;;;5031032;28;20021;-60
2023/10/22 04:32:40;;;;;;;7.53;4.03;;;;;;;;;;5024719;28;20068;-59
2023/10/22 04:35:05;;;;;;;6.33;3.50;;;;;;;;;;5025871;28;20036;-59
2023/10/22 04:37:30;;;;;;;7.38;3.85;;;;;;;;;;5031031;28;20100;-60
2023/10/22 04:39:58;;;;;;;7.45;3.70;;;;;;;;;;5031113;28;20022;-59
2023/10/22 04:42:24;;;;;;;7.07;3.90;;;;;;;;;;5031282;28;20429;-59
2023/10/22 04:44:49;;;;;;;8.10;4.47;;;;;;;;;;5031220;28;20503;-59
2023/10/22 04:47:14;;;;;;;6.87;4.07;;;;;;;;;;5029330;28;20053;-58
2023/10/22 04:49:39;;;;;;;9.35;8.27;;;;;;;;;;5031020;28;20018;-57
2023/10/22 04:52:09;;;;;;;7.93;4.93;;;;;;;;;;5030360;28;20033;-60
2023/10/22 04:54:34;;;;;;;9.48;4.53;;;;;;;;;;5030825;28;20444;-57
2023/10/22 04:57:02;;;;;;;7.47;4.37;;;;;;;;;;5028646;28;20025;-57
2023/10/22 04:59:27;;;;;;;9.57;5.07;;;;;;;;;;5030156;28;20033;-60
2023/10/22 05:01:52;;;;;;;10.87;9.37;;;;;;;;;;5029992;28;20025;-58
2023/10/22 05:04:17;;;;;;;12.67;11.57;;;;;;;;;;5030187;28;20033;-60
2023/10/22 05:06:42;;;;;;;10.73;6.37;;;;;;;;;;5031367;28;20400;-59
2023/10/22 05:09:08;;;;;;;6.75;3.90;;;;;;;;;;5028770;28;20026;-59
2023/10/22 05:11:33;;;;;;;11.77;5.43;;;;;;;;;;5030874;28;20029;-59
2023/10/22 05:13:58;;;;;;;10.83;9.80;;;;;;;;;;5031589;28;20485;-59
2023/10/22 05:16:24;;;;;;;6.40;3.72;;;;;;;;;;5029598;28;20034;-59
2023/10/22 05:18:49;;;;;;;14.87;13.37;;;;;;;;;;5031225;28;20061;-59
2023/10/22 05:21:14;;;;;;;21.43;19.50;;;;;;;;;;5029424;28;20064;-60
2023/10/22 05:23:39;;;;;;;10.30;7.50;;;;;;;;;;5030879;28;20049;-60
2023/10/22 05:26:05;;;;;;;14.10;10.30;;;;;;;;;;5026029;28;20084;-58
2023/10/22 05:28:30;;;;;;;29.70;27.13;;;;;;;;;;5027640;28;20555;-59
2023/10/22 05:30:55;;;;;;;14.03;12.43;;;;;;;;;;5030107;28;20018;-60
2023/10/22 05:33:21;;;;;;;13.93;6.07;;;;;;;;;;5030066;28;20456;-58
2023/10/22 05:35:46;;;;;;;8.97;4.67;;;;;;;;;;5031066;28;20017;-58
2023/10/22 05:38:11;;;;;;;8.50;6.05;;;;;;;;;;5032497;28;20071;-58
2023/10/22 05:40:37;;;;;;;10.65;7.35;;;;;;;;;;5033918;28;20022;-60
2023/10/22 05:43:02;;;;;;;8.50;4.97;;;;;;;;;;5034580;28;20286;-60
2023/10/22 05:45:28;;;;;;;7.45;4.25;;;;;;;;;;5034466;28;20032;-61
2023/10/22 05:47:53;;;;;;;12.40;10.30;;;;;;;;;;5035167;28;20017;-58
2023/10/22 05:50:18;;;;;;;8.00;4.27;;;;;;;;;;5033934;28;20025;-58
2023/10/22 05:52:43;;;;;;;6.55;5.10;;;;;;;;;;5034519;28;20025;-58
2023/10/22 05:55:08;;;;;;;11.33;10.27;;;;;;;;;;5031841;28;20056;-58
2023/10/22 05:57:33;;;;;;;8.83;7.97;;;;;;;;;;5028820;28;20034;-59
2023/10/22 05:59:59;;;;;;;8.45;4.22;;;;;;;;;;5033411;28;20032;-59
2023/10/22 06:02:24;;;;;;;13.23;11.63;;;;;;;;;;5031375;28;20029;-59
2023/10/22 06:04:49;;;;;;;12.85;10.30;;;;;;;;;;5033994;28;20491;-59
2023/10/22 06:07:14;;;;;;;7.40;4.27;;;;;;;;;;5029628;28;20053;-59
2023/10/22 06:09:39;;;;;;;9.93;6.47;;;;;;;;;;5033050;28;20033;-59
2023/10/22 06:12:05;;;;;;;8.70;6.87;;;;;;;;;;5033122;28;20029;-61
2023/10/22 06:14:30;;;;;;;5.80;3.60;;;;;;;;;;5032186;28;20325;-61
2023/10/22 06:16:55;;;;;;;7.57;3.20;;;;;;;;;;5033363;28;20029;-61
2023/10/22 06:19:20;;;;;;;8.70;7.90;;;;;;;;;;5032824;28;20032;-60
2023/10/22 06:21:46;;;;;;;14.87;13.67;;;;;;;;;;5031583;28;20400;-60
2023/10/22 06:24:12;;;;;;;9.00;6.75;;;;;;;;;;5033899;28;20036;-61
2023/10/22 06:26:37;;;;;;;6.07;3.50;;;;;;;;;;5035011;28;20409;-62
2023/10/22 06:29:02;;;;;;;8.80;7.90;;;;;;;;;;5034012;28;20025;-62
2023/10/22 06:31:27;;;;;;;5.95;3.53;;;;;;;;;;5034175;28;20038;-62
2023/10/22 06:33:53;;;;;;;10.10;4.60;;;;;;;;;;5034753;28;20474;-62
2023/10/22 06:36:19;;;;;;;9.63;4.30;;;;;;;;;;5041568;28;20041;-61
2023/10/22 06:38:45;;;;;;;13.15;12.02;;;;;;;;;;5034197;28;20540;-62
2023/10/22 06:41:17;;;;;;;8.80;4.95;;;;;;;;;;5039361;28;20071;-62
2023/10/22 06:43:43;;;;;;;6.35;3.75;;;;;;;;;;5033530;28;20017;-60
2023/10/22 06:46:08;;;;;;;8.75;5.32;;;;;;;;;;5032798;28;20034;-61
2023/10/22 06:48:34;;;;;;;20.55;19.10;;;;;;;;;;5029475;28;20482;-60
2023/10/22 06:50:59;;;;;;;9.33;4.10;;;;;;;;;;5030189;28;20366;-62
2023/10/22 06:53:24;;;;;;;8.45;4.95;;;;;;;;;;5031225;28;20442;-60
2023/10/22 06:55:49;;;;;;;18.83;17.30;;;;;;;;;;5029768;28;20079;-61
2023/10/22 06:58:16;;;;;;;13.03;7.77;;;;;;;;;;5033241;28;20393;-62
2023/10/22 07:00:41;;;;;;;10.20;6.72;;;;;;;;;;5031902;28;20025;-62
2023/10/22 07:03:06;;;;;;;9.80;6.28;;;;;;;;;;5033192;28;20028;-62
2023/10/22 07:05:32;;;;;;;7.95;6.03;;;;;;;;;;5031467;28;20024;-62
2023/10/22 07:07:57;;;;;;;7.90;5.60;;;;;;;;;;5032697;28;20049;-62
2023/10/22 07:10:22;;;;;;;11.68;10.52;;;;;;;;;;5025574;28;20037;-61
2023/10/22 07:12:48;;;;;;;9.43;6.33;;;;;;;;;;5032340;28;20033;-60
2023/10/22 07:15:13;;;;;;;10.50;8.43;;;;;;;;;;5031711;28;20785;-60
2023/10/22 07:17:38;;;;;;;18.37;16.97;;;;;;;;;;5031378;28;20080;-61
2023/10/22 07:20:05;;;;;;;11.63;7.63;;;;;;;;;;5031280;28;20476;-61
2023/10/22 07:22:30;;;;;;;9.15;5.72;;;;;;;;;;5031773;28;20052;-61
2023/10/22 07:24:55;;;;;;;10.53;7.63;;;;;;;;;;5031253;28;20036;-61
2023/10/22 07:27:21;;;;;;;11.00;9.90;;;;;;;;;;5039206;28;20097;-59
2023/10/22 07:29:46;;;;;;;10.80;9.80;;;;;;;;;;5028984;28;20036;-62
2023/10/22 07:32:11;;;;;;;7.87;4.90;;;;;;;;;;5027713;28;20034;-59
2023/10/22 07:34:36;;;;;;;16.70;15.23;;;;;;;;;;5032047;28;20239;-62
2023/10/22 07:37:01;;;;;;;35.60;33.40;;;;;;;;;;5030549;28;20025;-60
2023/10/22 07:39:27;;;;;;;7.17;4.70;;;;;;;;;;5031067;28;20154;-60
2023/10/22 07:41:52;;;;;;;9.27;8.38;;;;;;;;;;5030958;28;20502;-62
2023/10/22 07:44:17;;;;;;;9.52;7.28;;;;;;;;;;5032232;28;20024;-60
2023/10/22 07:46:42;;;;;;;9.63;6.88;;;;;;;;;;5021500;28;20036;-61
2023/10/22 07:49:08;;;;;;;12.57;11.27;;;;;;;;;;5027016;28;20371;-60
2023/10/22 07:51:33;;;;;;;16.48;15.13;;;;;;;;;;5032221;28;20037;-61
2023/10/22 07:53:59;;;;;;;18.77;16.93;;;;;;;;;;5032558;28;20029;-61
2023/10/22 07:56:24;;;;;;;10.10;7.97;;;;;;;;;;5035973;28;20017;-61
2023/10/22 07:58:49;;;;;;;8.27;6.27;;;;;;;;;;5032067;28;20112;-61
2023/10/22 08:01:14;;;;;;;10.67;7.70;;;;;;;;;;5032621;28;20014;-61
2023/10/22 08:03:39;;;;;;;9.80;7.13;;;;;;;;;;5031712;28;20100;-61
2023/10/22 08:06:05;;;;;;;6.80;3.73;;;;;;;;;;5029848;28;20037;-61
2023/10/22 08:08:30;;;;;;;11.15;9.80;;;;;;;;;;5030967;28;20083;-61
2023/10/22 08:10:55;;;;;;;8.80;7.03;;;;;;;;;;5030632;28;20100;-64
2023/10/22 08:13:21;;;;;;;6.95;5.43;;;;;;;;;;5025530;28;20021;-61
2023/10/22 08:15:47;;;;;;;10.07;9.13;;;;;;;;;;5012568;28;20079;-61
2023/10/22 08:18:12;;;;;;;8.25;3.88;;;;;;;;;;5021982;28;20529;-61
2023/10/22 08:20:37;;;;;;;18.47;17.13;;;;;;;;;;5031136;28;20575;-61
2023/10/22 08:23:02;;;;;;;18.00;16.70;;;;;;;;;;5031876;28;20022;-61
2023/10/22 08:25:27;;;;;;;17.23;16.03;;;;;;;;;;5031539;28;20041;-61
2023/10/22 08:27:52;;;;;;;14.65;13.55;;;;;;;;;;5032404;28;20026;-61
2023/10/22 08:30:18;;;;;;;5.70;2.53;;;;;;;;;;5031377;28;20487;-61
2023/10/22 08:32:49;;;;;;;15.23;14.10;;;;;;;;;;5034905;28;20481;-61
2023/10/22 08:35:14;;;;;;;5.63;2.38;;;;;;;;;;5033761;28;20048;-62
2023/10/22 08:37:39;;;;;;;22.23;20.75;;;;;;;;;;5035825;28;20025;-61
2023/10/22 08:40:08;;;;;;;6.93;4.73;;;;;;;;;;5033264;28;20018;-61
2023/10/22 08:42:33;;;;;;;16.27;14.85;;;;;;;;;;5033862;28;20052;-61
2023/10/22 08:44:59;;;;;;;12.15;10.88;;;;;;;;;;5035089;28;20384;-63
2023/10/22 08:47:24;;;;;;;8.03;7.03;;;;;;;;;;5031178;28;20454;-61
2023/10/22 08:49:50;;;;;;;9.02;7.07;;;;;;;;;;5031439;28;20030;-60
2023/10/22 08:52:15;;;;;;;8.55;7.00;;;;;;;;;;5032038;28;20033;-61
2023/10/22 08:54:41;;;;;;;16.27;14.73;;;;;;;;;;5035462;28;20382;-61
2023/10/22 08:57:06;;;;;;;6.77;3.07;;;;;;;;;;5029025;28;20440;-61
2023/10/22 08:59:33;;;;;;;8.60;7.73;;;;;;;;;;5032674;28;20033;-60
2023/10/22 09:02:00;;;;;;;31.27;29.38;;;;;;;;;;5030500;28;20009;-60
2023/10/22 09:04:25;;;;;;;11.40;10.40;;;;;;;;;;5030991;28;20056;-60
2023/10/22 09:06:53;;;;;;;18.60;17.27;;;;;;;;;;5031367;28;20045;-61
2023/10/22 09:09:38;;;;;;;11.40;10.25;;;;;;;;;;5031118;28;20033;-60
2023/10/22 09:12:05;;;;;;;19.02;17.48;;;;;;;;;;5019868;28;20033;-60
2023/10/22 09:14:31;;;;;;;9.27;8.48;;;;;;;;;;5032109;28;20037;-60
2023/10/22 09:16:56;;;;;;;21.87;20.57;;;;;;;;;;5029454;28;20385;-60
2023/10/22 09:19:38;;;;;;;5.53;2.88;;;;;;;;;;5033382;28;20017;-60
2023/10/22 09:22:06;;;;;;;5.75;3.70;;;;;;;;;;5030107;28;20029;-61
2023/10/22 09:24:32;;;;;;;17.38;15.60;;;;;;;;;;5030048;28;20037;-60
2023/10/22 09:26:57;;;;;;;10.77;9.88;;;;;;;;;;5029244;28;20026;-60
2023/10/22 09:29:24;;;;;;;10.83;9.73;;;;;;;;;;5029034;28;20602;-60
2023/10/22 09:31:56;;;;;;;16.90;15.75;;;;;;;;;;5030279;28;20119;-60
2023/10/22 09:34:27;;;;;;;5.97;2.67;;;;;;;;;;5030307;28;20104;-60
2023/10/22 09:36:53;;;;;;;34.88;32.40;;;;;;;;;;5028913;28;20032;-60
2023/10/22 09:39:37;;;;;;;8.77;3.33;;;;;;;;;;5029271;28;20022;-61
2023/10/22 09:42:06;;;;;;;8.25;3.50;;;;;;;;;;5022760;28;20533;-61
2023/10/22 09:44:35;;;;;;;7.45;4.28;;;;;;;;;;5020651;28;20105;-61
2023/10/22 09:47:01;;;;;;;18.15;16.85;;;;;;;;;;5024254;28;20021;-60
2023/10/22 09:49:27;;;;;;;6.43;3.25;;;;;;;;;;5027887;28;20080;-60
2023/10/22 09:51:55;;;;;;;19.27;17.77;;;;;;;;;;5025198;28;20160;-60
2023/10/22 09:54:21;;;;;;;6.35;2.53;;;;;;;;;;5022777;28;20026;-59
2023/10/22 09:56:52;;;;;;;16.77;15.60;;;;;;;;;;5029550;28;20028;-60
2023/10/22 09:59:22;;;;;;;5.38;2.67;;;;;;;;;;5029528;28;20484;-60
2023/10/22 10:01:48;;;;;;;15.43;14.30;;;;;;;;;;5017982;28;20072;-60
2023/10/22 10:04:13;;;;;;;55.78;51.40;;;;;;;;;;5026065;28;20025;-59
2023/10/22 10:06:39;;;;;;;10.00;8.45;;;;;;;;;;5029270;28;20025;-61
2023/10/22 10:09:04;;;;;;;12.73;11.40;;;;;;;;;;5029443;28;20519;-60
2023/10/22 10:11:30;;;;;;;17.23;15.77;;;;;;;;;;5028328;28;20033;-61
2023/10/22 10:13:56;;;;;;;8.00;2.58;;;;;;;;;;5025843;28;20021;-60
2023/10/22 10:16:24;;;;;;;12.10;11.00;;;;;;;;;;5021890;28;20124;-58
2023/10/22 10:19:02;;;;;;;7.18;4.32;;;;;;;;;;5031137;28;20509;-58
2023/10/22 10:21:33;;;;;;;10.27;8.35;;;;;;;;;;5028486;28;20056;-59
2023/10/22 10:24:27;;;;;;;86.65;80.63;;;;;;;;;;5035350;28;20706;-60
2023/10/22 10:26:58;;;;;;;13.75;12.70;;;;;;;;;;5031353;28;20037;-60
2023/10/22 10:29:28;;;;;;;7.72;4.20;;;;;;;;;;5030370;28;20029;-59
2023/10/22 10:31:55;;;;;;;14.57;13.40;;;;;;;;;;5033325;28;20053;-59
2023/10/22 10:34:25;;;;;;;60.50;55.75;;;;;;;;;;5031253;28;20100;-59
2023/10/22 10:36:50;;;;;;;31.60;29.55;;;;;;;;;;5031833;28;20466;-57
2023/10/22 10:39:34;;;;;;;7.60;2.45;;;;;;;;;;5032508;28;20107;-57
2023/10/22 10:42:00;;;;;;;35.45;33.20;;;;;;;;;;5033727;28;20022;-58
2023/10/22 10:44:28;;;;;;;3.50;1.27;;;;;;;;;;5031318;28;20037;-60
2023/10/22 10:46:53;;;;;;;10.48;8.77;;;;;;;;;;5032854;28;20018;-59
2023/10/22 10:49:38;;;;;;;7.50;3.08;;;;;;;;;;5026068;28;20402;-59
2023/10/22 10:52:03;;;;;;;13.82;10.52;;;;;;;;;;5025703;28;20614;-58
2023/10/22 10:54:28;;;;;;;32.60;30.37;;;;;;;;;;5030732;28;20064;-58
2023/10/22 10:56:55;;;;;;;10.75;8.73;;;;;;;;;;5033475;28;20017;-60
2023/10/22 10:59:27;;;;;;;29.73;27.20;;;;;;;;;;5036457;28;20470;-60
2023/10/22 11:02:09;;;;;;;16.60;15.10;;;;;;;;;;5032485;28;20095;-59
2023/10/22 11:04:36;;;;;;;13.80;12.57;;;;;;;;;;5032023;28;20022;-59
2023/10/22 11:07:02;;;;;;;16.75;15.27;;;;;;;;;;5033547;28;20016;-59
2023/10/22 11:09:27;;;;;;;51.72;47.83;;;;;;;;;;5033251;28;20033;-59
2023/10/22 11:11:56;;;;;;;51.20;47.43;;;;;;;;;;5033291;28;20110;-59
2023/10/22 11:14:21;;;;;;;5.50;1.55;;;;;;;;;;5027797;28;20079;-59
2023/10/22 11:16:49;;;;;;;23.33;21.63;;;;;;;;;;5023917;28;20025;-59
2023/10/22 11:19:21;;;;;;;8.20;3.22;;;;;;;;;;5032032;28;20363;-59
2023/10/22 11:21:46;;;;;;;21.15;19.67;;;;;;;;;;5025090;28;20021;-59
2023/10/22 11:24:12;;;;;;;4.80;2.33;;;;;;;;;;5032798;28;20104;-57
2023/10/22 11:26:37;;;;;;;20.80;19.17;;;;;;;;;;5031024;28;20489;-59
2023/10/22 11:29:02;;;;;;;17.15;15.73;;;;;;;;;;5032761;28;20039;-58
2023/10/22 11:31:27;;;;;;;27.73;26.00;;;;;;;;;;5030235;28;20125;-59
2023/10/22 11:33:52;;;;;;;21.10;19.60;;;;;;;;;;5031332;28;20045;-58
2023/10/22 11:36:18;;;;;;;18.08;16.52;;;;;;;;;;5030292;28;20025;-60
2023/10/22 11:38:44;;;;;;;12.13;9.40;;;;;;;;;;5031146;28;20025;-59
2023/10/22 11:41:09;;;;;;;9.85;8.93;;;;;;;;;;5031582;28;20815;-57
2023/10/22 11:43:39;;;;;;;8.73;4.40;;;;;;;;;;5032285;28;20025;-57
2023/10/22 11:46:05;;;;;;;63.42;58.63;;;;;;;;;;5030561;28;20505;-59
2023/10/22 11:48:32;;;;;;;8.98;2.88;;;;;;;;;;5030841;28;20021;-57
2023/10/22 11:50:58;;;;;;;13.43;12.32;;;;;;;;;;5031605;28;20021;-60
2023/10/22 11:53:26;;;;;;;9.25;8.00;;;;;;;;;;5031427;28;20029;-59
2023/10/22 11:55:51;;;;;;;14.32;12.75;;;;;;;;;;5031215;28;20112;-58
2023/10/22 11:58:18;;;;;;;11.90;9.23;;;;;;;;;;5031397;28;20153;-60
2023/10/22 12:00:44;;;;;;;34.42;32.35;;;;;;;;;;5030103;28;20037;-59
2023/10/22 12:03:09;;;;;;;15.73;14.23;;;;;;;;;;5031044;28;20183;-59
2023/10/22 12:05:34;;;;;;;7.57;6.20;;;;;;;;;;5031263;28;20028;-58
2023/10/22 12:07:59;;;;;;;11.27;10.27;;;;;;;;;;5032250;28;20429;-58
2023/10/22 12:10:24;;;;;;;17.30;16.02;;;;;;;;;;5019066;28;20486;-57
2023/10/22 12:12:49;;;;;;;9.43;8.30;;;;;;;;;;5030169;28;20022;-60
2023/10/22 12:15:15;;;;;;;10.90;9.90;;;;;;;;;;5024199;28;20053;-58
2023/10/22 12:17:40;;;;;;;12.97;11.80;;;;;;;;;;5029779;28;20025;-58
2023/10/22 12:20:05;;;;;;;27.40;25.50;;;;;;;;;;5029502;28;20095;-60
2023/10/22 12:22:30;;;;;;;10.13;8.25;;;;;;;;;;5033155;28;20104;-59
2023/10/22 12:24:57;;;;;;;22.83;21.23;;;;;;;;;;5031480;28;20048;-57
2023/10/22 12:27:22;;;;;;;8.02;4.47;;;;;;;;;;5032133;28;20079;-58
2023/10/22 12:29:47;;;;;;;12.50;11.47;;;;;;;;;;5032340;28;20025;-57
2023/10/22 12:32:12;;;;;;;18.00;16.60;;;;;;;;;;5031868;28;20025;-58
2023/10/22 12:34:37;;;;;;;7.97;5.63;;;;;;;;;;5034161;28;20025;-58
2023/10/22 12:37:03;;;;;;;11.90;10.80;;;;;;;;;;5030506;28;20468;-59
2023/10/22 12:39:28;;;;;;;5.13;3.05;;;;;;;;;;5030734;28;20029;-59
2023/10/22 12:41:53;;;;;;;29.10;27.23;;;;;;;;;;5030281;28;20055;-59
2023/10/22 12:44:21;;;;;;;12.70;11.57;;;;;;;;;;5032136;28;20025;-59
2023/10/22 12:46:46;;;;;;;23.45;22.00;;;;;;;;;;5026318;28;20029;-57
2023/10/22 12:49:11;;;;;;;58.20;53.83;;;;;;;;;;5039609;28;20020;-59
2023/10/22 12:51:37;;;;;;;34.30;31.92;;;;;;;;;;5031642;28;20065;-59
2023/10/22 12:54:04;;;;;;;6.63;3.97;;;;;;;;;;5032326;28;20022;-59
2023/10/22 12:56:29;;;;;;;7.70;4.55;;;;;;;;;;5030422;28;20036;-59
2023/10/22 12:58:55;;;;;;;33.90;31.83;;;;;;;;;;5032509;28;20025;-59
2023/10/22 13:01:20;;;;;;;6.68;5.40;;;;;;;;;;5030886;28;20056;-59
2023/10/22 13:03:45;;;;;;;22.97;21.47;;;;;;;;;;5031932;28;20100;-59
2023/10/22 13:06:10;;;;;;;4.73;1.43;;;;;;;;;;5029953;28;20036;-60
2023/10/22 13:08:35;;;;;;;10.57;9.57;;;;;;;;;;5030636;28;20009;-59
2023/10/22 13:11:01;;;;;;;62.93;59.03;;;;;;;;;;5029736;28;20026;-59
2023/10/22 13:13:27;;;;;;;10.40;7.30;;;;;;;;;;5031062;28;20592;-59
2023/10/22 13:15:52;;;;;;;21.27;19.77;;;;;;;;;;5029584;28;20028;-59
2023/10/22 13:18:17;;;;;;;6.87;2.97;;;;;;;;;;5026795;28;20502;-59
2023/10/22 13:20:43;;;;;;;29.75;27.85;;;;;;;;;;5029664;28;20374;-59
2023/10/22 13:23:08;;;;;;;9.38;8.55;;;;;;;;;;5031425;28;20021;-58
2023/10/22 13:25:36;;;;;;;39.87;37.00;;;;;;;;;;5021449;28;20017;-59
2023/10/22 13:28:01;;;;;;;18.35;17.10;;;;;;;;;;5027481;28;20546;-59
2023/10/22 13:30:27;;;;;;;5.37;2.47;;;;;;;;;;5028200;28;20029;-58
2023/10/22 13:32:54;;;;;;;15.45;14.13;;;;;;;;;;5029004;28;20555;-59
2023/10/22 13:35:19;;;;;;;6.70;0.93;;;;;;;;;;5028417;28;20032;-59
2023/10/22 13:37:44;;;;;;;10.67;9.37;;;;;;;;;;5030546;28;20013;-59
2023/10/22 13:40:10;;;;;;;4.75;2.05;;;;;;;;;;5028298;28;20116;-59
2023/10/22 13:42:36;;;;;;;10.25;9.40;;;;;;;;;;5028996;28;20030;-59
2023/10/22 13:45:01;;;;;;;16.83;15.60;;;;;;;;;;5030782;28;20027;-59
2023/10/22 13:47:26;;;;;;;8.63;7.13;;;;;;;;;;5029100;28;20036;-59
2023/10/22 13:49:51;;;;;;;20.30;18.57;;;;;;;;;;5028910;28;20029;-59
2023/10/22 13:52:16;;;;;;;3.80;1.10;;;;;;;;;;5029526;28;20040;-59
2023/10/22 13:54:42;;;;;;;16.27;14.87;;;;;;;;;;5029370;28;20030;-59
2023/10/22 13:57:07;;;;;;;7.40;3.53;;;;;;;;;;5029238;28;20045;-58
2023/10/22 13:59:32;;;;;;;28.30;25.93;;;;;;;;;;5032901;28;20493;-59
2023/10/22 14:01:57;;;;;;;20.30;18.93;;;;;;;;;;5031866;28;20096;-58
2023/10/22 14:04:23;;;;;;;6.10;3.33;;;;;;;;;;5034206;28;20032;-59
2023/10/22 14:06:49;;;;;;;7.53;4.18;;;;;;;;;;5032895;28;20389;-59
2023/10/22 14:09:14;;;;;;;7.47;4.70;;;;;;;;;;5031791;28;20021;-58
2023/10/22 14:11:41;;;;;;;8.35;7.47;;;;;;;;;;5032764;28;20478;-57
2023/10/22 14:14:06;;;;;;;5.68;1.60;;;;;;;;;;5031735;28;20443;-59
2023/10/22 14:16:33;;;;;;;22.55;20.92;;;;;;;;;;5032734;28;20126;-59
2023/10/22 14:18:58;;;;;;;23.88;22.25;;;;;;;;;;5032778;28;20477;-58
2023/10/22 14:21:23;;;;;;;7.20;1.87;;;;;;;;;;5031539;28;20025;-57
2023/10/22 14:23:48;;;;;;;6.83;5.70;;;;;;;;;;5031341;28;20017;-59
2023/10/22 14:26:13;;;;;;;5.80;3.67;;;;;;;;;;5031201;28;20067;-59